Time;durP1;ratioP1;P1;durP2;ratioP2;P2;SDS_P1;SDS_P2;PMS_P1;PMS_P2;Temp;Humidity;BMP_temperature;BMP_pressure;BME280_temperature;BME280_humidity;BME280_pressure;Samples;Min_cycle;Max_cycle;Signal;HPM_P1;HPM_P2
2022/01/30 00:04:22;;;;;;;42.97;22.02;;;;;;;-1.19;76.85;97495.44;10316151;28;96824;-64
2022/01/30 00:09:25;;;;;;;44.08;21.55;;;;;;;-1.32;76.99;97505.22;10331424;28;96905;-64
2022/01/30 00:14:31;;;;;;;40.15;20.88;;;;;;;-1.30;77.58;97485.50;10313363;28;97772;-64
2022/01/30 00:19:40;;;;;;;47.42;21.45;;;;;;;-1.29;76.71;97460.72;10325610;28;97082;-64
2022/01/30 00:24:49;;;;;;;46.38;21.48;;;;;;;-1.28;76.44;97458.09;10318261;28;96893;-64
2022/01/30 00:29:52;;;;;;;45.25;22.23;;;;;;;-1.38;76.58;97454.13;10321494;28;98447;-64
2022/01/30 00:34:56;;;;;;;44.70;22.30;;;;;;;-1.57;77.04;97453.84;10337242;28;96738;-64
2022/01/30 00:39:59;;;;;;;46.72;21.48;;;;;;;-1.81;77.37;97454.50;10328673;28;97747;-65
2022/01/30 00:45:03;;;;;;;49.05;22.00;;;;;;;-2.04;77.22;97454.25;10314858;28;98706;-64
2022/01/30 00:50:09;;;;;;;46.17;22.27;;;;;;;-2.15;77.85;97446.00;10340511;28;97216;-64
2022/01/30 00:55:12;;;;;;;49.90;22.77;;;;;;;-2.23;77.42;97430.84;10342199;28;97000;-64
2022/01/30 01:00:16;;;;;;;49.92;22.73;;;;;;;-2.28;77.99;97424.16;10316551;28;97051;-64
2022/01/30 01:05:20;;;;;;;48.45;23.00;;;;;;;-2.32;78.52;97423.38;10326448;28;98744;-64
2022/01/30 01:10:34;;;;;;;46.97;21.70;;;;;;;-2.43;78.43;97413.44;10315745;28;97901;-64
2022/01/30 01:26:16;;;;;;;50.63;23.98;;;;;;;-2.65;78.26;97405.44;10323987;28;97822;-64
2022/01/30 01:31:19;;;;;;;45.53;23.05;;;;;;;-2.74;78.24;97399.75;10330053;28;98419;-63
2022/01/30 01:36:24;;;;;;;46.70;23.10;;;;;;;-2.85;77.76;97400.00;10330493;28;96791;-63
2022/01/30 01:41:29;;;;;;;46.63;22.52;;;;;;;-2.94;79.08;97397.66;10324655;28;97127;-63
2022/01/30 01:46:35;;;;;;;50.67;23.70;;;;;;;-2.98;79.26;97391.78;10321177;28;96882;-64
2022/01/30 01:51:46;;;;;;;54.95;25.30;;;;;;;-3.10;78.49;97392.06;10342250;28;96858;-64
2022/01/30 01:56:49;;;;;;;57.67;27.08;;;;;;;-3.19;78.67;97382.91;10311926;28;97478;-63
2022/01/30 02:01:53;;;;;;;52.33;25.38;;;;;;;-3.17;78.96;97373.47;10328952;28;96929;-64
2022/01/30 02:07:14;;;;;;;62.25;27.08;;;;;;;-3.13;78.82;97372.53;10331077;28;96797;-64
2022/01/30 02:12:21;;;;;;;57.78;26.83;;;;;;;-3.08;79.49;97386.06;10323967;28;97030;-64
2022/01/30 02:28:11;;;;;;;50.67;23.70;;;;;;;-3.15;79.81;97399.81;10322742;28;97277;-63
2022/01/30 02:33:13;;;;;;;53.25;23.52;;;;;;;-3.04;79.78;97387.66;10326842;28;100854;-64
2022/01/30 02:38:19;;;;;;;46.10;24.48;;;;;;;-3.02;80.83;97385.91;10324860;28;97331;-63
2022/01/30 02:43:27;;;;;;;57.72;24.33;;;;;;;-3.11;80.03;97381.00;10325074;28;97020;-63
2022/01/30 02:48:45;;;;;;;52.92;22.92;;;;;;;-3.07;80.57;97382.59;10313379;28;96884;-64
2022/01/30 02:54:02;;;;;;;53.38;25.65;;;;;;;-3.03;80.52;97383.38;10320666;28;97281;-63
2022/01/30 02:59:05;;;;;;;55.08;24.00;;;;;;;-3.03;80.38;97368.91;10319673;28;97275;-63
2022/01/30 03:04:08;;;;;;;53.78;25.25;;;;;;;-2.99;80.64;97380.72;10332980;28;97364;-63
2022/01/30 03:09:12;;;;;;;54.58;24.38;;;;;;;-3.06;80.21;97386.84;10333204;28;96963;-63
2022/01/30 03:14:15;;;;;;;51.78;24.35;;;;;;;-3.04;80.89;97387.66;10326453;28;97165;-63
2022/01/30 03:19:18;;;;;;;47.58;23.55;;;;;;;-3.06;80.87;97394.53;10325815;28;96959;-64
2022/01/30 03:24:22;;;;;;;53.10;25.27;;;;;;;-3.13;80.82;97393.00;10335761;28;96836;-64
2022/01/30 03:29:25;;;;;;;52.30;25.73;;;;;;;-3.12;80.81;97394.66;10327951;28;96921;-63
2022/01/30 03:34:28;;;;;;;52.83;25.98;;;;;;;-3.06;80.69;97391.97;10338516;28;97129;-63
2022/01/30 03:39:33;;;;;;;53.15;24.15;;;;;;;-3.00;79.98;97379.03;10325213;28;96951;-63
2022/01/30 03:44:36;;;;;;;55.45;24.90;;;;;;;-2.87;80.67;97376.16;10321373;28;96709;-64
2022/01/30 03:49:39;;;;;;;55.85;25.58;;;;;;;-2.75;81.05;97360.50;10324934;28;96861;-63
2022/01/30 03:54:44;;;;;;;46.80;23.85;;;;;;;-2.70;80.75;97365.53;10327832;28;96936;-64
2022/01/30 03:59:46;;;;;;;54.40;24.70;;;;;;;-2.66;80.50;97357.75;10334118;28;96979;-64
2022/01/30 04:04:49;;;;;;;52.55;25.48;;;;;;;-2.67;80.56;97368.84;10329994;28;97087;-64
2022/01/30 04:09:54;;;;;;;49.47;24.92;;;;;;;-2.67;79.67;97371.41;10340317;28;98733;-64
2022/01/30 04:14:57;;;;;;;48.60;23.20;;;;;;;-2.65;80.66;97364.53;10323455;28;97078;-63
2022/01/30 04:20:00;;;;;;;51.50;24.00;;;;;;;-2.66;80.02;97369.69;10330394;28;96831;-63
2022/01/30 04:25:05;;;;;;;45.30;21.77;;;;;;;-2.66;80.27;97357.75;10320764;28;97151;-64
2022/01/30 04:30:10;;;;;;;53.60;24.63;;;;;;;-2.66;80.37;97378.22;10323800;28;100938;-64
2022/01/30 04:35:18;;;;;;;;;;;;;;;-2.54;80.62;97365.97;10334892;28;97132;-63
2022/01/30 04:40:46;;;;;;;47.40;22.08;;;;;;;-2.51;80.88;97371.00;10334682;28;97365;-63
2022/01/30 04:57:01;;;;;;;51.08;23.88;;;;;;;-2.23;80.72;97355.75;10201340;28;97199;-63
2022/01/30 05:02:10;;;;;;;46.15;20.42;;;;;;;-2.09;80.29;97347.69;10200406;28;96935;-64
2022/01/30 05:07:29;;;;;;;47.90;21.80;;;;;;;-2.04;79.79;97344.16;10187401;28;97015;-64
2022/01/30 05:12:42;;;;;;;48.55;21.85;;;;;;;-2.05;80.56;97339.06;10199665;28;96834;-64
2022/01/30 05:17:45;;;;;;;43.22;21.88;;;;;;;-2.03;79.80;97344.97;10189029;28;97326;-64
2022/01/30 05:22:48;;;;;;;48.90;21.33;;;;;;;-2.01;80.19;97338.09;10194811;28;97192;-64
2022/01/30 05:27:53;;;;;;;46.97;21.33;;;;;;;-2.04;80.29;97345.84;10319091;28;97070;-64
2022/01/30 05:32:56;;;;;;;44.00;19.92;;;;;;;-2.05;79.62;97339.88;10328448;28;98508;-64
2022/01/30 05:38:00;;;;;;;40.53;20.60;;;;;;;-2.19;80.36;97343.72;10326717;28;96755;-63
2022/01/30 05:43:05;;;;;;;45.35;21.92;;;;;;;-2.37;79.87;97347.63;10322063;28;96978;-63
2022/01/30 05:48:14;;;;;;;40.10;19.25;;;;;;;-2.46;79.83;97356.38;10320303;28;97192;-64
2022/01/30 05:53:17;;;;;;;46.80;21.13;;;;;;;-2.59;80.97;97358.44;10325073;28;97146;-64
2022/01/30 05:58:21;;;;;;;41.47;19.90;;;;;;;-2.61;80.45;97355.03;10330003;28;96990;-64
2022/01/30 06:03:26;;;;;;;39.58;19.27;;;;;;;-2.63;80.86;97367.91;10330627;28;98393;-65
2022/01/30 06:08:41;;;;;;;42.72;20.25;;;;;;;-2.69;80.00;97373.16;10324235;28;97942;-64
2022/01/30 06:13:45;;;;;;;47.25;21.20;;;;;;;-2.92;80.77;97371.19;10334866;28;98224;-63
2022/01/30 06:18:48;;;;;;;45.33;20.48;;;;;;;-3.00;80.43;97373.91;10328112;28;97036;-64
2022/01/30 06:23:51;;;;;;;51.50;21.55;;;;;;;-3.03;80.69;97368.91;10324350;28;97871;-64
2022/01/30 06:28:55;;;;;;;44.70;21.35;;;;;;;-3.11;81.60;97375.91;10333222;28;96810;-64
2022/01/30 06:33:58;;;;;;;48.90;22.25;;;;;;;-3.16;80.80;97382.81;10328830;28;96709;-64
2022/01/30 06:39:01;;;;;;;49.30;23.08;;;;;;;-3.22;81.80;97377.84;10328886;28;96825;-63
2022/01/30 06:44:07;;;;;;;46.83;20.88;;;;;;;-3.26;80.83;97378.81;10337552;28;97017;-63
2022/01/30 06:49:11;;;;;;;42.83;21.63;;;;;;;-3.29;81.91;97381.41;10336561;28;97313;-64
2022/01/30 06:54:14;;;;;;;42.45;20.40;;;;;;;-3.30;80.60;97379.75;10333610;28;96861;-63
2022/01/30 06:59:18;;;;;;;41.70;20.92;;;;;;;-3.30;80.71;97389.97;10339073;28;97407;-64
2022/01/30 07:04:21;;;;;;;46.83;22.00;;;;;;;-3.25;81.45;97388.13;10326769;28;98456;-64
2022/01/30 07:09:24;;;;;;;41.92;21.60;;;;;;;-3.21;81.60;97389.75;10323045;28;98107;-63
2022/01/30 07:14:29;;;;;;;46.00;20.08;;;;;;;-3.12;81.55;97383.59;10325792;28;97129;-64
2022/01/30 07:19:32;;;;;;;45.20;20.80;;;;;;;-3.02;81.84;97390.19;10329708;28;97784;-63
2022/01/30 07:24:34;;;;;;;46.97;20.73;;;;;;;-3.09;82.10;97393.75;10345896;28;96797;-64
2022/01/30 07:29:39;;;;;;;44.92;22.98;;;;;;;-3.12;82.08;97393.81;10326672;28;98351;-64
2022/01/30 07:34:41;;;;;;;45.28;22.80;;;;;;;-3.16;81.76;97395.59;10333252;28;97233;-63
2022/01/30 07:39:44;;;;;;;49.28;21.73;;;;;;;-2.93;82.37;97399.34;10334413;28;97057;-63
2022/01/30 07:44:49;;;;;;;47.03;21.08;;;;;;;-2.72;82.10;97393.69;10320322;28;97215;-64
2022/01/30 07:49:52;;;;;;;42.47;20.43;;;;;;;-2.58;81.41;97395.91;10322275;28;97020;-64
2022/01/30 07:54:55;;;;;;;40.63;21.23;;;;;;;-2.47;80.31;97398.19;10327328;28;97160;-64
2022/01/30 07:59:59;;;;;;;45.95;21.95;;;;;;;-2.42;81.26;97406.59;10326271;28;96830;-64
2022/01/30 08:05:02;;;;;;;47.63;22.48;;;;;;;-2.39;81.01;97403.13;10337671;28;96908;-64
2022/01/30 08:10:06;;;;;;;46.80;21.73;;;;;;;-2.35;80.54;97397.03;10337010;28;96888;-64
2022/01/30 08:15:11;;;;;;;47.50;22.13;;;;;;;-2.41;80.46;97393.75;10326260;28;98514;-64
2022/01/30 08:20:13;;;;;;;46.83;22.52;;;;;;;-2.58;79.99;97389.97;10324645;28;96815;-64
2022/01/30 08:25:17;;;;;;;52.40;23.48;;;;;;;-2.69;80.73;97378.28;10329967;28;98317;-64
2022/01/30 08:30:21;;;;;;;47.83;23.00;;;;;;;-2.64;80.58;97380.72;10325304;28;96775;-64
2022/01/30 08:35:25;;;;;;;50.47;23.53;;;;;;;-2.50;81.01;97373.53;10332431;28;96977;-64
2022/01/30 08:40:28;;;;;;;48.88;24.67;;;;;;;-2.42;80.25;97384.41;10321927;28;97613;-64
2022/01/30 08:45:32;;;;;;;46.88;23.23;;;;;;;-2.32;80.71;97372.19;10334884;28;101138;-64
2022/01/30 08:50:36;;;;;;;44.05;22.55;;;;;;;-2.20;80.24;97371.03;10321808;28;98589;-64
2022/01/30 08:55:39;;;;;;;41.28;22.52;;;;;;;-2.11;80.28;97378.44;10331944;28;97175;-64
2022/01/30 09:00:44;;;;;;;42.55;19.40;;;;;;;-1.94;79.85;97370.31;10323154;28;97049;-64
2022/01/30 09:05:47;;;;;;;40.92;20.05;;;;;;;-1.86;79.05;97381.19;10325987;28;97892;-64
2022/01/30 09:10:50;;;;;;;40.17;21.27;;;;;;;-1.70;79.88;97383.31;10328438;28;97527;-64
2022/01/30 09:15:57;;;;;;;40.63;19.10;;;;;;;-1.49;78.97;97386.97;10333803;28;98787;-65
2022/01/30 09:21:00;;;;;;;41.45;20.02;;;;;;;-1.33;79.25;97377.09;10323001;28;96817;-65
2022/01/30 09:26:03;;;;;;;40.05;20.10;;;;;;;-1.23;79.13;97378.50;10322142;28;97327;-65
2022/01/30 09:31:07;;;;;;;41.83;19.73;;;;;;;-1.15;78.95;97376.53;10320107;28;97155;-64
2022/01/30 09:36:10;;;;;;;40.38;19.35;;;;;;;-0.98;78.17;97380.28;10324395;28;98222;-64
2022/01/30 09:41:15;;;;;;;45.20;20.40;;;;;;;-0.85;78.68;97376.44;10324328;28;97225;-64
2022/01/30 09:46:20;;;;;;;36.28;17.88;;;;;;;-0.78;77.63;97380.47;10313308;28;97441;-64
2022/01/30 09:51:23;;;;;;;40.47;19.23;;;;;;;-0.58;77.56;97379.84;10319927;28;98112;-64
2022/01/30 09:56:26;;;;;;;37.75;19.95;;;;;;;-0.36;77.15;97379.94;10316659;28;97061;-65
2022/01/30 10:01:34;;;;;;;30.10;16.05;;;;;;;-0.23;76.48;97374.38;10325396;28;97118;-64
2022/01/30 10:06:52;;;;;;;34.05;18.33;;;;;;;-0.09;76.42;97382.44;10319790;28;97279;-64
2022/01/30 10:12:13;;;;;;;32.33;16.65;;;;;;;0.09;76.09;97375.81;10316374;28;97673;-64
2022/01/30 10:17:25;;;;;;;32.13;15.93;;;;;;;0.24;75.80;97377.00;10325193;28;97071;-65
2022/01/30 10:22:30;;;;;;;30.95;16.92;;;;;;;0.38;75.43;97366.19;10341103;28;97736;-64
2022/01/30 10:27:33;;;;;;;29.60;16.67;;;;;;;0.55;74.90;97363.81;10329148;28;96909;-65
2022/01/30 10:32:38;;;;;;;29.85;16.25;;;;;;;0.80;74.58;97360.31;10320425;28;97477;-65
2022/01/30 10:37:43;;;;;;;32.42;17.73;;;;;;;1.06;73.94;97354.13;10313170;28;96980;-64
2022/01/30 10:42:46;;;;;;;;;;;;;;;1.22;74.21;97353.50;10306305;28;97590;-64
2022/01/30 10:47:51;;;;;;;33.25;17.90;;;;;;;1.53;73.95;97343.59;10315062;28;101323;-64
2022/01/30 10:52:58;;;;;;;33.65;18.75;;;;;;;2.04;73.54;97335.41;10321568;28;97337;-65
2022/01/30 10:58:02;;;;;;;33.50;18.42;;;;;;;2.64;72.55;97328.38;10313867;28;96804;-64
2022/01/30 11:03:06;;;;;;;29.17;16.92;;;;;;;3.20;71.24;97321.38;10312278;28;97253;-64
2022/01/30 11:08:22;;;;;;;26.67;16.30;;;;;;;3.78;70.79;97312.44;10311892;28;101243;-64
2022/01/30 11:13:32;;;;;;;;;;;;;;;4.23;70.54;97297.19;10314403;28;97245;-65
2022/01/30 11:18:36;;;;;;;24.35;15.32;;;;;;;4.68;69.59;97281.78;10302970;28;98071;-65
2022/01/30 11:23:42;;;;;;;24.80;15.15;;;;;;;5.02;68.28;97285.06;10331234;28;97193;-64
2022/01/30 11:28:45;;;;;;;24.92;14.05;;;;;;;5.18;68.07;97259.94;10338501;28;97258;-64
2022/01/30 11:33:52;;;;;;;21.40;13.38;;;;;;;5.16;67.86;97256.63;10334484;28;102358;-65
2022/01/30 11:38:56;;;;;;;22.67;12.75;;;;;;;5.05;68.53;97240.88;10331217;28;98862;-65
2022/01/30 11:44:29;;;;;;;19.58;12.07;;;;;;;5.13;68.54;97223.13;10337880;28;98009;-64
2022/01/30 11:49:40;;;;;;;19.27;11.75;;;;;;;5.22;68.61;97212.25;10323999;28;97571;-65
2022/01/30 11:54:45;;;;;;;10.43;7.18;;;;;;;5.30;68.60;97214.34;10327372;28;97075;-64
2022/01/30 11:59:49;;;;;;;10.15;6.35;;;;;;;5.47;69.17;97200.41;10314856;28;97614;-65
2022/01/30 12:04:55;;;;;;;11.55;7.70;;;;;;;5.63;68.49;97201.13;10329497;28;97324;-65
2022/01/30 12:10:32;;;;;;;10.98;6.65;;;;;;;5.74;68.45;97189.28;10330972;28;98513;-65
2022/01/30 12:15:36;;;;;;;10.68;7.60;;;;;;;5.89;68.41;97177.94;10335641;28;96836;-64
2022/01/30 12:21:04;;;;;;;10.95;6.20;;;;;;;6.01;67.90;97174.59;10326854;28;100864;-65
2022/01/30 12:26:09;;;;;;;6.55;3.90;;;;;;;6.23;67.88;97152.50;10312716;28;96990;-65
2022/01/30 12:31:25;;;;;;;5.95;3.95;;;;;;;6.44;66.46;97158.06;10320979;28;98526;-65
2022/01/30 12:36:32;;;;;;;8.05;4.78;;;;;;;6.65;66.30;97135.03;10331061;28;97752;-65
2022/01/30 12:41:36;;;;;;;7.18;4.65;;;;;;;6.91;66.81;97129.88;10332627;28;98651;-64
2022/01/30 12:46:46;;;;;;;6.07;3.20;;;;;;;7.14;65.89;97126.56;10324711;28;98266;-65
2022/01/30 12:51:52;;;;;;;4.00;2.38;;;;;;;7.32;65.46;97113.25;10325190;28;96969;-64
2022/01/30 12:56:57;;;;;;;4.55;3.00;;;;;;;7.52;65.27;97104.09;10321034;28;96887;-64
2022/01/30 13:02:04;;;;;;;4.40;2.60;;;;;;;7.55;64.28;97111.69;10326729;28;96945;-64
2022/01/30 13:07:12;;;;;;;3.60;2.58;;;;;;;7.59;64.67;97100.13;10326095;28;97043;-64
2022/01/30 13:12:18;;;;;;;4.22;2.88;;;;;;;7.65;64.15;97088.44;10319421;28;98296;-64
2022/01/30 13:17:28;;;;;;;3.90;2.47;;;;;;;7.53;63.71;97079.75;10318040;28;98692;-65
2022/01/30 13:22:36;;;;;;;4.65;2.25;;;;;;;7.56;64.10;97074.31;10325251;28;99625;-65
2022/01/30 13:27:39;;;;;;;3.38;2.13;;;;;;;7.90;62.45;97062.34;10317185;28;98185;-65
2022/01/30 13:32:42;;;;;;;3.17;2.08;;;;;;;8.04;62.78;97052.72;10314332;28;97376;-62
2022/01/30 13:37:48;;;;;;;2.95;1.90;;;;;;;8.37;61.95;97048.56;10320034;28;97270;-62
2022/01/30 13:42:54;;;;;;;63.42;38.13;;;;;;;8.65;61.30;97042.94;10325404;28;97719;-62
2022/01/30 13:47:58;;;;;;;4.75;3.65;;;;;;;8.90;60.77;97034.09;10311957;28;100345;-63
2022/01/30 13:53:04;;;;;;;5.15;3.08;;;;;;;8.88;60.45;97033.41;10317628;28;97489;-63
2022/01/30 13:58:08;;;;;;;4.90;3.30;;;;;;;8.82;60.46;97025.22;10308520;28;98481;-62
2022/01/30 14:03:11;;;;;;;5.05;2.88;;;;;;;8.81;60.84;97021.78;10312451;28;97368;-63
2022/01/30 14:08:18;;;;;;;5.82;3.10;;;;;;;8.75;61.00;97029.25;10320205;28;97547;-62
2022/01/30 14:13:28;;;;;;;6.00;3.58;;;;;;;8.63;61.14;97028.38;10328512;28;98477;-63
2022/01/30 14:18:35;;;;;;;5.50;3.58;;;;;;;8.64;61.14;97024.84;10329246;28;98515;-62
2022/01/30 14:23:39;;;;;;;5.88;3.20;;;;;;;8.58;60.96;97020.91;10314006;28;97226;-64
2022/01/30 14:28:47;;;;;;;4.80;3.03;;;;;;;8.45;60.59;97017.59;10315382;28;97605;-62
2022/01/30 14:33:50;;;;;;;4.85;3.17;;;;;;;8.21;60.80;97010.66;10314695;28;98454;-62
2022/01/30 14:38:55;;;;;;;4.13;2.78;;;;;;;8.34;60.60;97003.59;10314367;28;98079;-63
2022/01/30 14:43:58;;;;;;;4.88;2.83;;;;;;;8.72;60.45;96991.22;10313922;28;97370;-62
2022/01/30 14:49:02;;;;;;;4.35;2.78;;;;;;;9.44;59.78;96987.41;10316226;28;98268;-63
2022/01/30 14:54:06;;;;;;;4.82;2.92;;;;;;;10.23;58.57;96977.47;10318701;28;98442;-63
2022/01/30 14:59:09;;;;;;;4.72;2.97;;;;;;;10.89;57.74;96965.03;10319601;28;98102;-63
2022/01/30 15:04:13;;;;;;;4.72;3.20;;;;;;;11.26;56.52;96972.28;10319939;28;97130;-63
2022/01/30 15:09:17;;;;;;;6.88;3.33;;;;;;;10.92;56.47;96962.97;10331139;28;98555;-63
2022/01/30 15:14:23;;;;;;;6.28;3.50;;;;;;;11.33;55.09;96952.53;10331645;28;98441;-64
2022/01/30 15:19:27;;;;;;;4.40;2.70;;;;;;;11.67;54.57;96954.75;10336290;28;98675;-65
2022/01/30 15:24:31;;;;;;;11.68;6.00;;;;;;;11.84;53.24;96942.78;10327989;28;97912;-64
2022/01/30 15:29:34;;;;;;;4.65;2.53;;;;;;;11.33;53.64;96953.34;10321813;28;97221;-64
2022/01/30 15:34:37;;;;;;;5.85;3.00;;;;;;;10.16;54.93;96944.97;10329808;28;97339;-63
2022/01/30 15:39:41;;;;;;;4.20;2.60;;;;;;;9.29;56.15;96940.69;10319640;28;97325;-63
2022/01/30 15:50:06;;;;;;;12.30;7.75;;;;;;;8.28;57.46;96936.38;10317274;28;98470;-63
2022/01/30 15:55:11;;;;;;;4.30;2.13;;;;;;;7.94;57.93;96933.72;10329508;28;96905;-62
2022/01/30 16:00:15;;;;;;;3.03;2.00;;;;;;;7.67;58.45;96931.38;10332465;28;96957;-65
2022/01/30 16:05:19;;;;;;;4.13;2.13;;;;;;;7.39;59.56;96937.75;10323481;28;97764;-65
2022/01/30 16:10:24;;;;;;;4.57;2.35;;;;;;;7.13;59.90;96940.44;10319807;28;97542;-64
2022/01/30 16:15:37;;;;;;;3.03;2.08;;;;;;;6.97;60.10;96934.66;10324398;28;98355;-65
2022/01/30 16:20:41;;;;;;;4.32;2.20;;;;;;;6.74;61.29;96931.06;10328854;28;96875;-65
2022/01/30 16:25:45;;;;;;;4.82;2.80;;;;;;;6.55;61.37;96926.31;10324316;28;97673;-64
2022/01/30 16:30:48;;;;;;;5.38;2.60;;;;;;;6.44;61.59;96927.88;10311305;28;97574;-66
2022/01/30 16:35:51;;;;;;;5.07;2.47;;;;;;;6.13;62.41;96930.91;10322437;28;97297;-65
2022/01/30 16:40:56;;;;;;;6.82;2.65;;;;;;;5.87;63.33;96931.69;10317618;28;97270;-64
2022/01/30 16:46:19;;;;;;;6.83;3.37;;;;;;;5.59;64.01;96932.69;10320052;28;97211;-64
2022/01/30 16:51:23;;;;;;;10.55;5.65;;;;;;;5.23;64.44;96928.94;10321255;28;97322;-64
2022/01/30 16:56:28;;;;;;;10.18;4.93;;;;;;;4.91;65.49;96936.97;10314952;28;96964;-64
2022/01/30 17:01:31;;;;;;;10.00;4.60;;;;;;;4.58;66.54;96939.91;10318593;28;97250;-64
2022/01/30 17:06:53;;;;;;;7.32;4.88;;;;;;;4.27;67.36;96925.38;10318215;28;97548;-65
2022/01/30 17:12:04;;;;;;;6.50;4.75;;;;;;;4.13;67.76;96928.81;10308490;28;97222;-64
2022/01/30 17:17:07;;;;;;;6.68;5.38;;;;;;;4.03;67.89;96931.09;10307511;28;97145;-64
2022/01/30 17:22:10;;;;;;;8.82;5.43;;;;;;;3.90;68.09;96932.72;10316150;28;101953;-64
2022/01/30 17:27:14;;;;;;;7.13;4.30;;;;;;;3.76;68.11;96926.63;10308308;28;98654;-64
2022/01/30 17:32:17;;;;;;;5.95;3.85;;;;;;;3.49;68.25;96928.19;10313930;28;98279;-64
2022/01/30 17:37:20;;;;;;;5.38;3.53;;;;;;;3.22;69.74;96931.38;10317778;28;97155;-64
2022/01/30 17:42:24;;;;;;;5.95;3.47;;;;;;;3.18;70.06;96924.75;10342970;28;97327;-64
2022/01/30 17:47:47;;;;;;;4.75;2.67;;;;;;;3.13;70.33;96931.91;10321051;28;97199;-64
2022/01/30 17:52:51;;;;;;;5.70;3.05;;;;;;;3.02;69.68;96929.94;10323926;28;97243;-64
2022/01/30 17:57:56;;;;;;;5.05;3.05;;;;;;;2.76;70.97;96924.44;10326069;28;97425;-64
2022/01/30 18:02:59;;;;;;;3.63;2.53;;;;;;;2.72;70.73;96929.81;10321678;28;97080;-64
2022/01/30 18:08:02;;;;;;;5.55;2.70;;;;;;;2.57;70.78;96934.06;10323355;28;97363;-64
2022/01/30 18:13:06;;;;;;;8.48;5.40;;;;;;;2.56;71.44;96938.38;10327639;28;97002;-64
2022/01/30 18:18:09;;;;;;;5.93;2.83;;;;;;;2.35;71.55;96929.19;10323015;28;98441;-64
2022/01/30 18:23:12;;;;;;;10.70;6.50;;;;;;;2.19;71.99;96927.41;10331915;28;97726;-64
2022/01/30 18:28:16;;;;;;;10.05;5.95;;;;;;;2.02;71.47;96924.88;10326155;28;98424;-64
2022/01/30 18:33:21;;;;;;;7.95;4.47;;;;;;;1.83;72.14;96924.97;10318371;28;100177;-64
2022/01/30 18:43:49;;;;;;;8.57;5.93;;;;;;;1.47;72.73;96913.00;10329222;28;97106;-64
2022/01/30 18:48:52;;;;;;;7.72;5.10;;;;;;;1.32;73.19;96917.16;10334070;28;98510;-64
2022/01/30 18:53:55;;;;;;;8.32;3.85;;;;;;;1.13;73.33;96922.38;10321508;28;97190;-64
2022/01/30 18:59:00;;;;;;;6.93;4.53;;;;;;;0.91;74.39;96919.97;10328256;28;97174;-64
2022/01/30 19:04:02;;;;;;;6.78;4.32;;;;;;;0.83;74.13;96916.91;10330292;28;97329;-64
2022/01/30 19:09:07;;;;;;;6.57;3.85;;;;;;;0.71;74.23;96919.16;10331431;28;97248;-64
2022/01/30 19:14:12;;;;;;;6.77;4.37;;;;;;;0.59;74.60;96922.28;10326303;28;97171;-64
2022/01/30 19:19:15;;;;;;;8.15;5.20;;;;;;;0.52;74.09;96920.91;10319732;28;97231;-64
2022/01/30 19:24:19;;;;;;;8.40;3.85;;;;;;;0.42;73.90;96925.59;10321044;28;97209;-64
2022/01/30 19:29:25;;;;;;;9.00;4.35;;;;;;;0.34;74.00;96923.38;10328113;28;98515;-65
2022/01/30 19:34:28;;;;;;;6.70;4.50;;;;;;;0.22;74.95;96908.53;10330075;28;96922;-65
2022/01/30 19:39:31;;;;;;;32.90;17.25;;;;;;;0.04;75.40;96910.13;10325715;28;98582;-61
2022/01/30 19:44:36;;;;;;;108.18;63.75;;;;;;;-0.08;75.97;96905.53;10312284;27;97193;-67
2022/01/30 19:49:39;;;;;;;9.73;5.90;;;;;;;-0.12;76.23;96899.69;10328030;28;97148;-63
2022/01/30 19:54:42;;;;;;;17.75;8.70;;;;;;;-0.14;76.31;96904.91;10316018;28;98501;-63
2022/01/30 19:59:47;;;;;;;5.88;3.90;;;;;;;-0.14;76.54;96894.63;10322052;28;97724;-65
2022/01/30 20:04:51;;;;;;;6.85;4.25;;;;;;;-0.16;75.95;96877.63;10340764;28;98395;-66
2022/01/30 20:09:54;;;;;;;12.73;7.03;;;;;;;-0.23;76.13;96882.19;10320360;28;97320;-65
2022/01/30 20:14:58;;;;;;;8.25;5.00;;;;;;;-0.29;76.19;96886.75;10327035;28;97315;-68
2022/01/30 20:20:01;;;;;;;6.20;3.70;;;;;;;-0.51;76.84;96882.53;10323406;28;97109;-65
2022/01/30 20:25:05;;;;;;;5.90;3.67;;;;;;;-0.66;76.80;96881.41;10324702;28;97578;-66
2022/01/30 20:30:10;;;;;;;9.98;6.30;;;;;;;-0.76;76.91;96878.38;10327868;28;97130;-66
2022/01/30 20:35:13;;;;;;;8.27;5.43;;;;;;;-0.81;77.01;96869.22;10326814;28;97341;-66
2022/01/30 20:40:17;;;;;;;9.57;5.68;;;;;;;-0.86;77.50;96866.81;10332758;28;97138;-66
2022/01/30 20:45:25;;;;;;;7.05;3.90;;;;;;;-0.90;77.43;96876.38;10320326;28;98606;-66
2022/01/30 20:50:29;;;;;;;6.03;3.17;;;;;;;-0.95;77.36;96880.03;10310820;28;97549;-66
2022/01/30 20:55:32;;;;;;;7.35;4.10;;;;;;;-0.99;78.33;96870.78;10308301;28;96995;-67
2022/01/30 21:00:37;;;;;;;3.92;2.63;;;;;;;-0.98;78.32;96873.31;10323949;28;96858;-67
2022/01/30 21:05:40;;;;;;;6.47;4.03;;;;;;;-1.04;77.48;96880.41;10324319;28;97214;-67
2022/01/30 21:10:44;;;;;;;12.23;6.10;;;;;;;-1.15;77.25;96871.41;10332385;28;97169;-66
2022/01/30 21:15:51;;;;;;;8.90;4.75;;;;;;;-1.24;77.96;96860.66;10324822;28;96974;-66
2022/01/30 21:20:54;;;;;;;7.70;5.05;;;;;;;-1.29;77.64;96848.03;10317653;28;98910;-66
2022/01/30 21:25:57;;;;;;;11.73;7.38;;;;;;;-1.40;77.59;96845.06;10316845;28;96994;-66
2022/01/30 21:31:01;;;;;;;11.55;7.47;;;;;;;-1.51;78.22;96833.47;10316583;28;96818;-67
2022/01/30 21:36:05;;;;;;;7.22;4.70;;;;;;;-1.49;77.94;96841.13;10322029;28;97071;-67
2022/01/30 21:41:09;;;;;;;4.10;2.53;;;;;;;-1.38;78.99;96843.25;10322537;28;97057;-67
2022/01/30 21:46:13;;;;;;;2.60;1.27;;;;;;;-1.30;78.78;96829.25;10327334;28;98454;-66
2022/01/30 21:51:17;;;;;;;7.10;3.88;;;;;;;-1.26;78.82;96832.53;10318852;28;96956;-66
2022/01/30 21:56:19;;;;;;;83.50;36.60;;;;;;;-1.30;78.16;96821.56;10317039;28;96773;-68
2022/01/30 22:01:24;;;;;;;13.75;7.15;;;;;;;-1.37;78.40;96820.13;10327329;28;97652;-65
2022/01/30 22:06:27;;;;;;;2.07;1.30;;;;;;;-1.48;78.19;96812.88;10323031;28;97581;-64
2022/01/30 22:11:34;;;;;;;4.32;2.63;;;;;;;-1.53;78.44;96809.66;10322161;28;97198;-67
2022/01/30 22:16:39;;;;;;;4.00;2.05;;;;;;;-1.54;78.04;96812.28;10319110;28;97071;-66
2022/01/30 22:21:42;;;;;;;5.03;2.75;;;;;;;-1.61;78.89;96814.22;10325141;28;96822;-67
2022/01/30 22:26:45;;;;;;;6.50;3.20;;;;;;;-1.74;78.65;96802.78;10315969;28;97534;-67
2022/01/30 22:31:49;;;;;;;6.93;3.50;;;;;;;-1.79;78.15;96809.84;10321750;28;97219;-66
2022/01/30 22:36:52;;;;;;;7.47;4.93;;;;;;;-1.95;78.06;96796.75;10328517;28;96890;-66
2022/01/30 22:41:55;;;;;;;23.27;13.27;;;;;;;-2.07;77.63;96785.25;10322343;28;98722;-66
2022/01/30 22:47:00;;;;;;;21.83;11.88;;;;;;;-2.18;77.74;96772.00;10319656;28;101306;-66
2022/01/30 22:52:03;;;;;;;19.48;9.60;;;;;;;-2.26;77.72;96762.91;10327576;28;99071;-66
2022/01/30 22:57:06;;;;;;;23.33;12.52;;;;;;;-2.33;78.32;96748.66;10318214;28;98715;-66
2022/01/30 23:02:10;;;;;;;32.75;18.60;;;;;;;-2.54;78.53;96757.09;10323114;28;97071;-67
2022/01/30 23:07:14;;;;;;;29.93;17.73;;;;;;;-2.68;78.77;96755.03;10324901;28;101248;-66
2022/01/30 23:12:19;;;;;;;24.45;14.63;;;;;;;-2.69;78.75;96743.97;10330064;28;97588;-66
2022/01/30 23:17:24;;;;;;;21.05;13.63;;;;;;;-2.73;79.83;96747.53;10325311;28;98218;-67
2022/01/30 23:22:29;;;;;;;24.70;13.80;;;;;;;-2.74;78.83;96727.97;10330900;28;97087;-66
2022/01/30 23:27:36;;;;;;;19.30;10.50;;;;;;;-2.75;78.93;96721.16;10334756;28;98594;-66
2022/01/30 23:32:41;;;;;;;15.13;9.73;;;;;;;-2.76;78.85;96727.19;10315783;28;98478;-67
2022/01/30 23:37:44;;;;;;;14.37;8.43;;;;;;;-2.72;79.45;96728.72;10317727;28;98056;-66
2022/01/30 23:42:49;;;;;;;15.55;7.88;;;;;;;-2.70;79.58;96696.25;10336376;28;97300;-65
2022/01/30 23:47:54;;;;;;;14.75;7.93;;;;;;;-2.68;78.99;96694.50;10336739;28;97041;-66
2022/01/30 23:52:57;;;;;;;;;;;;;;;-2.76;80.94;96688.81;10335696;28;98616;-65
2022/01/30 23:58:00;;;;;;;6.68;4.05;;;;;;;-2.88;78.70;96676.47;10338515;28;96881;-64
